CheckWX is a tool to help pilots better visualize weather data.  It is not intended as a substitute for an official pre-flight weather briefing.

08:55:53 UTC

KHTS TAF
Tri-State / Milton J Ferguson Field Airport
Huntington, West Virginia, USA
KHTS 190839Z 1909/2006 18004KT P6SM FEW250 FM191400 20009G16KT P6SM FEW250 FM191900 21012G23KT P6SM BKN150 FM200000 22009KT P6SM BKN120

May-19@
09:00 UTC

May-19 @ 09:00 UTC

May-19@
14:00 UTC

May-19 @ 14:00 UTC

KHTS 190839Z 1909/2006 18004KT P6SM FEW250
Wind
  • 180° at 4 KTS
Cloud Levels
  • Few at 25,000' AGL

May-19@
14:00 UTC

May-19 @ 14:00 UTC

May-19@
19:00 UTC

May-19 @ 19:00 UTC

FM191400 20009G16KT P6SM FEW250

From

From Standard forecast or significant change

Wind
  • 200° at 9 KTS
  • {Gusting to 16 KTS
Cloud Levels
  • Few at 25,000' AGL

May-19@
19:00 UTC

May-19 @ 19:00 UTC

May-20@
00:00 UTC

May-20 @ 00:00 UTC

FM191900 21012G23KT P6SM BKN150

From

From Standard forecast or significant change

Wind
  • 210° at 12 KTS
  • {Gusting to 23 KTS
Cloud Levels
  • Broken at 15,000' AGL

May-20@
00:00 UTC

May-20 @ 00:00 UTC

May-20@
06:00 UTC

May-20 @ 06:00 UTC

FM200000 22009KT P6SM BKN120

From

From Standard forecast or significant change

Wind
  • 220° at 9 KTS
Cloud Levels
  • Broken at 12,000' AGL